Time;durP1;ratioP1;P1;durP2;ratioP2;P2;SDS_P1;SDS_P2;PMS_P1;PMS_P2;Temp;Humidity;BMP_temperature;BMP_pressure;BME280_temperature;BME280_humidity;BME280_pressure;Samples;Min_cycle;Max_cycle;Signal;HPM_P1;HPM_P2
2021/12/18 00:00:15;;;;;;;4.68;2.70;;;;;;;3.14;63.83;99816.66;6196417;23;20019;-77
2021/12/18 00:02:45;;;;;;;6.13;2.63;;;;;;;3.13;63.76;99821.78;6195879;23;20020;-79
2021/12/18 00:05:11;;;;;;;5.20;2.70;;;;;;;3.20;63.63;99841.66;6189286;23;20020;-79
2021/12/18 00:07:37;;;;;;;3.70;2.38;;;;;;;3.14;63.98;99826.09;6185540;23;20023;-79
2021/12/18 00:10:04;;;;;;;4.00;3.08;;;;;;;3.05;63.20;99837.06;6134763;23;20390;-80
2021/12/18 00:12:30;;;;;;;4.22;2.88;;;;;;;3.05;63.64;99843.88;6134504;23;20040;-79
2021/12/18 00:14:56;;;;;;;8.00;2.83;;;;;;;3.00;63.58;99841.22;6183869;23;20013;-77
2021/12/18 00:17:22;;;;;;;6.22;3.33;;;;;;;3.00;63.54;99836.94;6185588;23;20497;-81
2021/12/18 00:19:48;;;;;;;5.80;3.15;;;;;;;3.09;63.59;99845.69;6158584;23;20020;-76
2021/12/18 00:22:13;;;;;;;5.20;3.03;;;;;;;2.62;63.72;99766.69;6189418;23;20043;-77
2021/12/18 00:24:39;;;;;;;6.10;3.25;;;;;;;2.90;63.48;99816.13;6194170;23;20012;-77
2021/12/18 00:27:06;;;;;;;6.22;3.20;;;;;;;2.95;64.53;99818.00;6196982;23;20079;-79
2021/12/18 00:29:32;;;;;;;5.85;3.03;;;;;;;3.06;64.05;99830.19;6195901;23;20025;-76
2021/12/18 00:31:58;;;;;;;6.95;3.03;;;;;;;3.08;63.69;99854.25;6168375;23;20414;-77
2021/12/18 00:34:23;;;;;;;4.50;2.97;;;;;;;3.08;64.45;99833.69;6188688;23;20023;-77
2021/12/18 00:36:50;;;;;;;7.38;3.20;;;;;;;3.11;64.06;99846.59;6194449;23;20074;-75
2021/12/18 00:39:17;;;;;;;6.70;3.47;;;;;;;2.94;64.47;99821.41;6175825;23;20479;-80
2021/12/18 00:44:13;;;;;;;5.80;3.42;;;;;;;2.95;64.15;99840.25;6186396;23;20045;-80
2021/12/18 00:46:42;;;;;;;6.10;3.70;;;;;;;3.04;64.28;99849.88;6174468;23;20059;-76
2021/12/18 00:49:13;;;;;;;5.72;3.17;;;;;;;3.05;64.83;99843.88;6186508;23;20005;-73
2021/12/18 00:51:39;;;;;;;5.75;3.42;;;;;;;2.86;64.42;99821.22;6197856;23;20354;-79
2021/12/18 00:54:05;;;;;;;5.05;3.22;;;;;;;3.05;64.70;99855.06;6185762;23;20021;-77
2021/12/18 00:56:31;;;;;;;5.85;3.55;;;;;;;2.86;64.22;99828.06;6157794;23;20297;-78
2021/12/18 00:58:57;;;;;;;4.68;3.17;;;;;;;2.85;64.56;99819.50;6158271;23;20024;-76
2021/12/18 01:01:24;;;;;;;5.85;3.33;;;;;;;2.94;64.28;99852.25;6184725;23;20098;-79
2021/12/18 01:03:51;;;;;;;4.75;3.30;;;;;;;2.88;65.05;99844.38;6185484;23;20023;-78
2021/12/18 01:06:19;;;;;;;6.70;3.22;;;;;;;2.79;64.78;99836.44;6133687;23;20033;-77
2021/12/18 01:08:46;;;;;;;4.70;3.10;;;;;;;2.94;64.71;99857.38;6158168;23;20043;-78
2021/12/18 01:16:43;;;;;;;5.30;3.35;;;;;;;2.96;64.80;99854.84;6158365;23;20040;-79
2021/12/18 01:24:37;;;;;;;7.07;3.17;;;;;;;3.13;65.42;99857.78;6133254;23;20463;-77
2021/12/18 01:27:03;;;;;;;4.68;2.97;;;;;;;3.04;64.72;99844.72;6184458;23;20051;-76
2021/12/18 01:29:29;;;;;;;5.45;3.33;;;;;;;3.07;65.14;99853.41;6132995;23;20016;-76
2021/12/18 01:31:55;;;;;;;4.22;2.90;;;;;;;3.03;64.39;99855.84;6132585;23;20024;-78
2021/12/18 01:34:20;;;;;;;5.45;3.10;;;;;;;2.79;64.94;99839.91;6184489;23;20092;-77
2021/12/18 01:36:46;;;;;;;5.30;3.42;;;;;;;2.81;64.84;99860.47;6183868;23;20043;-79
2021/12/18 01:39:12;;;;;;;3.88;2.88;;;;;;;2.76;64.82;99844.13;6159712;23;20024;-78
2021/12/18 01:42:36;;;;;;;4.57;3.22;;;;;;;2.80;65.35;99840.75;6186210;23;20036;-76
2021/12/18 01:52:41;;;;;;;6.07;3.55;;;;;;;2.81;65.04;99842.50;6159837;23;20020;-77
2021/12/18 01:55:09;;;;;;;6.75;3.55;;;;;;;2.90;65.43;99849.53;6135238;23;20023;-78
2021/12/18 01:57:35;;;;;;;5.13;3.30;;;;;;;2.82;63.91;99850.25;6186917;23;20021;-80
2021/12/18 02:00:01;;;;;;;6.18;3.65;;;;;;;2.85;64.95;99857.16;6186083;23;20017;-74
2021/12/18 02:02:28;;;;;;;4.95;3.42;;;;;;;2.75;65.34;99837.22;6135001;23;20096;-77
2021/12/18 02:04:54;;;;;;;4.07;2.72;;;;;;;2.81;65.11;99845.94;6185910;23;20055;-76
2021/12/18 02:07:20;;;;;;;5.57;3.10;;;;;;;2.94;65.08;99852.25;6160227;23;20348;-78
2021/12/18 02:10:05;;;;;;;5.45;2.53;;;;;;;2.71;64.56;99823.41;6160763;23;20021;-78
2021/12/18 02:12:42;;;;;;;5.00;2.72;;;;;;;2.82;65.08;99842.53;6112115;23;20021;-77
2021/12/18 02:20:46;;;;;;;4.18;2.60;;;;;;;2.98;64.62;99859.16;6185507;23;20353;-82
2021/12/18 02:23:13;;;;;;;4.63;2.65;;;;;;;2.84;64.65;99828.03;6184981;23;20292;-79
2021/12/18 02:25:39;;;;;;;3.50;2.50;;;;;;;3.00;64.30;99862.66;6159640;23;20099;-79
2021/12/18 02:28:12;;;;;;;4.88;2.70;;;;;;;3.03;64.43;99866.13;6188859;23;20170;-76
2021/12/18 02:30:38;;;;;;;4.50;2.72;;;;;;;3.06;64.74;99864.50;6205789;23;20089;-77
2021/12/18 02:33:05;;;;;;;4.25;2.90;;;;;;;2.99;64.54;99849.78;6209698;23;20031;-77
2021/12/18 02:35:37;;;;;;;6.85;3.30;;;;;;;3.13;64.96;99871.50;6201433;23;20093;-76
2021/12/18 02:38:11;;;;;;;5.82;3.10;;;;;;;3.17;64.58;99864.75;6188119;23;20038;-77
2021/12/18 02:43:16;;;;;;;5.32;2.97;;;;;;;3.16;64.74;99855.31;6160690;23;20021;-78
2021/12/18 02:45:42;;;;;;;6.30;3.20;;;;;;;3.28;64.55;99872.69;6135909;23;20402;-75
2021/12/18 02:48:08;;;;;;;6.30;3.20;;;;;;;3.30;63.87;99873.59;6160340;23;20033;-78
2021/12/18 02:50:38;;;;;;;5.22;3.25;;;;;;;3.34;63.96;99877.09;6159207;23;20044;-77
2021/12/18 02:53:07;;;;;;;6.15;3.20;;;;;;;3.29;64.22;99875.28;6135738;23;20024;-77
2021/12/18 02:55:32;;;;;;;5.72;3.28;;;;;;;3.32;64.10;99877.06;6191669;23;20488;-76
2021/12/18 02:57:58;;;;;;;5.50;3.28;;;;;;;3.30;64.41;99882.19;6183847;23;20080;-77
2021/12/18 03:00:26;;;;;;;6.55;3.58;;;;;;;3.14;63.92;99869.81;6160218;23;20096;-81
2021/12/18 03:02:52;;;;;;;5.80;3.20;;;;;;;3.13;64.69;99862.94;6134915;23;20116;-76
2021/12/18 03:05:25;;;;;;;6.13;3.78;;;;;;;2.98;64.25;99828.31;6186133;23;20144;-76
2021/12/18 03:07:58;;;;;;;6.25;3.55;;;;;;;3.17;64.57;99862.19;6134750;23;20021;-78
2021/12/18 03:24:35;;;;;;;6.68;3.60;;;;;;;3.14;64.37;99873.25;6159685;23;20017;-77
2021/12/18 03:27:01;;;;;;;7.57;3.42;;;;;;;3.03;64.52;99859.28;6185363;23;20131;-77
2021/12/18 03:29:27;;;;;;;5.90;3.63;;;;;;;3.11;64.65;99870.59;6185071;23;20037;-77
2021/12/18 03:31:53;;;;;;;8.27;3.80;;;;;;;3.00;64.40;99854.09;6184435;23;20025;-79
2021/12/18 03:34:18;;;;;;;6.68;3.88;;;;;;;3.14;64.70;99880.09;6186168;23;20112;-78
2021/12/18 03:36:44;;;;;;;6.30;3.47;;;;;;;2.94;64.38;99856.50;6158666;23;20551;-76
2021/12/18 03:39:10;;;;;;;4.60;2.63;;;;;;;2.98;64.28;99887.44;6134334;23;20040;-79
2021/12/18 03:41:36;;;;;;;4.50;1.98;;;;;;;2.66;64.47;99869.56;6134321;23;20023;-79
2021/12/18 03:44:02;;;;;;;2.70;1.90;;;;;;;2.64;64.53;99896.94;6158981;23;20058;-78
2021/12/18 03:46:28;;;;;;;3.28;1.70;;;;;;;2.62;65.00;99900.31;6183929;23;20075;-79
2021/12/18 03:48:54;;;;;;;2.88;1.50;;;;;;;2.49;65.08;99883.72;6185713;23;20017;-77
2021/12/18 03:51:20;;;;;;;5.25;2.00;;;;;;;2.46;65.19;99888.75;6135713;23;20017;-78
2021/12/18 03:53:45;;;;;;;5.13;1.98;;;;;;;2.31;65.03;99879.84;6135327;23;20017;-75
2021/12/18 03:56:11;;;;;;;3.15;1.83;;;;;;;2.45;65.55;99902.44;6151365;23;20029;-76
2021/12/18 03:58:37;;;;;;;5.07;2.30;;;;;;;2.39;65.14;99895.44;6172152;23;20017;-75
2021/12/18 04:01:03;;;;;;;4.28;2.10;;;;;;;2.40;65.68;99887.78;6171431;23;20047;-78
2021/12/18 04:03:29;;;;;;;4.28;1.77;;;;;;;2.39;65.88;99901.44;6160104;23;20513;-78
2021/12/18 04:05:55;;;;;;;3.05;1.92;;;;;;;2.40;65.51;99900.63;6136582;23;20156;-78
2021/12/18 04:08:21;;;;;;;3.22;1.60;;;;;;;2.24;65.62;99867.66;6177080;23;20032;-79
2021/12/18 04:10:46;;;;;;;3.17;1.80;;;;;;;2.29;65.55;99876.38;6172193;23;20048;-78
2021/12/18 04:13:12;;;;;;;2.97;1.77;;;;;;;2.35;65.56;99904.75;6201882;23;20011;-76
2021/12/18 04:15:38;;;;;;;3.10;1.48;;;;;;;2.23;66.27;99884.75;6211993;23;20099;-75
2021/12/18 04:18:04;;;;;;;4.47;1.42;;;;;;;2.27;66.00;99885.72;6196851;23;20021;-76
2021/12/18 04:20:30;;;;;;;2.88;1.30;;;;;;;2.29;65.93;99899.47;6164437;23;20462;-75
2021/12/18 04:22:56;;;;;;;2.45;1.50;;;;;;;2.24;65.86;99890.78;6193011;23;20504;-77
2021/12/18 04:25:22;;;;;;;3.28;1.58;;;;;;;2.29;65.96;99912.31;6162938;23;20048;-78
2021/12/18 04:27:49;;;;;;;2.97;1.50;;;;;;;2.35;66.16;99912.47;6160927;23;20017;-77
2021/12/18 04:30:16;;;;;;;2.88;1.88;;;;;;;2.38;65.71;99911.69;6185537;23;20122;-78
2021/12/18 04:32:41;;;;;;;3.47;1.60;;;;;;;2.36;65.64;99911.63;6185417;23;20048;-76
2021/12/18 04:35:08;;;;;;;2.72;1.30;;;;;;;2.30;65.46;99902.91;6185999;23;20370;-80
2021/12/18 04:37:33;;;;;;;1.85;1.10;;;;;;;2.23;65.69;99907.00;6184050;23;20024;-76
2021/12/18 04:39:59;;;;;;;2.72;1.25;;;;;;;2.28;65.67;99915.72;6185090;23;20017;-77
2021/12/18 04:42:25;;;;;;;2.08;1.13;;;;;;;2.25;65.70;99898.50;6185176;23;20386;-79
2021/12/18 04:44:51;;;;;;;3.10;1.15;;;;;;;2.31;65.71;99900.41;6158563;23;20016;-77
2021/12/18 04:47:17;;;;;;;5.20;1.58;;;;;;;2.41;64.98;99917.78;6186628;23;20021;-76
2021/12/18 04:49:42;;;;;;;3.17;1.35;;;;;;;2.37;64.62;99915.94;6185723;23;20024;-77
2021/12/18 04:52:08;;;;;;;1.88;1.33;;;;;;;2.35;64.65;99909.03;6158839;23;20021;-80
2021/12/18 04:54:34;;;;;;;2.13;1.70;;;;;;;2.37;64.82;99913.38;6184970;23;20027;-78
2021/12/18 04:57:00;;;;;;;2.38;1.40;;;;;;;2.23;64.74;99886.47;6161054;23;20048;-77
2021/12/18 04:59:25;;;;;;;2.20;1.15;;;;;;;2.22;63.99;99887.28;6159625;23;20041;-76
2021/12/18 05:01:52;;;;;;;3.67;1.33;;;;;;;2.13;64.67;99887.03;6157955;23;20039;-80
2021/12/18 05:04:19;;;;;;;2.28;1.40;;;;;;;2.33;64.72;99913.25;6159050;23;20024;-79
2021/12/18 05:06:47;;;;;;;2.53;1.80;;;;;;;2.36;63.98;99918.47;6158305;23;20048;-77
2021/12/18 05:09:14;;;;;;;4.95;2.13;;;;;;;2.33;63.88;99921.81;6158217;23;20017;-79
2021/12/18 05:11:42;;;;;;;4.00;2.22;;;;;;;2.26;64.30;99907.09;6186296;23;20059;-80
2021/12/18 05:14:09;;;;;;;3.13;1.88;;;;;;;2.28;64.79;99902.88;6159475;23;20044;-78
2021/12/18 05:16:35;;;;;;;3.42;1.70;;;;;;;2.38;64.13;99919.41;6192521;23;20072;-76
2021/12/18 05:19:03;;;;;;;3.53;1.80;;;;;;;2.30;63.98;99919.19;6203150;23;20043;-78
2021/12/18 05:21:29;;;;;;;3.90;2.08;;;;;;;2.37;64.03;99923.66;6190828;23;20454;-76
2021/12/18 05:23:55;;;;;;;3.85;2.33;;;;;;;2.43;64.10;99927.22;6171958;23;20019;-75
2021/12/18 05:26:20;;;;;;;5.45;2.70;;;;;;;2.43;63.61;99922.06;6142358;23;20017;-79
2021/12/18 05:28:46;;;;;;;4.35;2.58;;;;;;;2.29;63.92;99898.59;6184826;23;20028;-78
2021/12/18 05:31:16;;;;;;;6.43;2.70;;;;;;;2.46;63.67;99920.44;6159740;23;20013;-80
2021/12/18 05:33:47;;;;;;;5.05;2.72;;;;;;;2.42;63.51;99923.78;6186574;23;20128;-77
2021/12/18 05:36:30;;;;;;;6.10;2.20;;;;;;;2.36;63.48;99908.22;6191008;23;20479;-80
2021/12/18 05:39:04;;;;;;;4.32;2.00;;;;;;;2.41;63.26;99922.91;6197034;23;20017;-78
2021/12/18 05:41:30;;;;;;;5.20;2.33;;;;;;;2.39;63.17;99919.44;6148892;23;20027;-79
2021/12/18 05:43:57;;;;;;;3.83;2.00;;;;;;;2.20;62.87;99891.53;6197739;23;20099;-77
2021/12/18 05:46:23;;;;;;;3.63;2.03;;;;;;;2.41;62.83;99928.03;6193106;23;20024;-78
2021/12/18 05:48:49;;;;;;;3.85;1.95;;;;;;;2.35;62.78;99917.59;6165980;23;20100;-78
2021/12/18 05:51:15;;;;;;;4.65;2.10;;;;;;;2.37;62.55;99923.66;6168901;23;20021;-77
2021/12/18 05:53:41;;;;;;;4.32;1.73;;;;;;;2.33;62.34;99924.38;6196814;23;20021;-77
2021/12/18 05:56:07;;;;;;;5.35;2.47;;;;;;;2.20;62.26;99907.81;6176839;23;20001;-77
2021/12/18 05:58:33;;;;;;;5.70;2.88;;;;;;;2.34;62.42;99926.13;6158570;23;20013;-78
2021/12/18 06:00:59;;;;;;;6.60;2.80;;;;;;;2.09;61.99;99906.63;6175247;23;20044;-73
2021/12/18 06:03:25;;;;;;;7.53;3.15;;;;;;;2.16;62.29;99925.63;6173352;23;20045;-79
2021/12/18 06:05:51;;;;;;;7.97;3.22;;;;;;;1.86;62.16;99896.59;6195708;23;20039;-78
2021/12/18 06:08:17;;;;;;;6.05;2.85;;;;;;;2.04;61.89;99921.94;6197853;23;20016;-78
2021/12/18 06:10:43;;;;;;;7.00;3.10;;;;;;;2.02;62.37;99913.31;6165894;23;20044;-76
2021/12/18 06:13:08;;;;;;;7.57;3.13;;;;;;;1.95;62.13;99901.13;6163406;23;20027;-77
2021/12/18 06:15:34;;;;;;;8.52;3.38;;;;;;;2.08;62.45;99934.03;6190837;23;20040;-77
2021/12/18 06:18:01;;;;;;;6.68;3.10;;;;;;;1.98;61.80;99915.75;6187339;23;20358;-79
2021/12/18 06:20:28;;;;;;;8.38;3.97;;;;;;;1.93;61.44;99924.19;6112504;23;20017;-77
2021/12/18 06:22:54;;;;;;;8.20;3.50;;;;;;;2.02;61.57;99925.25;6162285;23;20016;-76
2021/12/18 06:25:20;;;;;;;7.82;4.60;;;;;;;2.03;62.10;99924.44;6165015;23;20017;-79
2021/12/18 06:27:46;;;;;;;7.97;3.53;;;;;;;1.93;61.55;99910.47;6201475;23;20382;-79
2021/12/18 06:30:16;;;;;;;8.25;3.50;;;;;;;1.82;61.88;99884.50;6175371;23;20477;-78
2021/12/18 06:32:42;;;;;;;6.47;3.33;;;;;;;2.00;61.92;99901.25;6195434;23;20031;-78
2021/12/18 06:35:11;;;;;;;10.05;3.70;;;;;;;2.07;61.66;99906.63;6162692;23;20020;-77
2021/12/18 06:37:38;;;;;;;8.65;3.50;;;;;;;1.70;61.65;99846.53;6188378;23;20308;-77
2021/12/18 06:40:24;;;;;;;9.32;3.70;;;;;;;1.58;61.25;99826.56;6187457;23;20082;-79
2021/12/18 06:42:50;;;;;;;6.38;2.75;;;;;;;1.67;61.00;99846.47;6162299;23;20089;-79
2021/12/18 06:45:16;;;;;;;8.20;3.67;;;;;;;1.98;60.94;99908.91;6188711;23;20057;-78
2021/12/18 06:47:52;;;;;;;8.43;3.50;;;;;;;1.49;60.90;99822.03;6138311;23;20108;-81
2021/12/18 06:50:18;;;;;;;7.30;3.70;;;;;;;1.73;60.85;99880.00;6162767;23;20082;-79
2021/12/18 06:52:46;;;;;;;8.93;3.83;;;;;;;1.39;60.66;99798.66;6135279;23;20117;-78
2021/12/18 06:55:12;;;;;;;6.68;3.35;;;;;;;1.87;60.61;99872.69;6158017;23;20021;-77
2021/12/18 06:57:38;;;;;;;8.38;3.90;;;;;;;2.31;60.98;99936.34;6159495;23;20023;-74
2021/12/18 07:00:09;;;;;;;9.27;3.85;;;;;;;2.11;60.37;99923.81;6136023;23;20013;-77
2021/12/18 07:02:53;;;;;;;10.13;3.75;;;;;;;2.21;60.64;99940.34;6139061;23;20021;-77
2021/12/18 07:05:20;;;;;;;7.22;3.45;;;;;;;2.27;60.72;99934.53;6160331;23;20466;-77
2021/12/18 07:07:46;;;;;;;8.00;3.65;;;;;;;2.22;60.37;99924.09;6185704;23;20071;-77
2021/12/18 07:10:14;;;;;;;8.13;3.40;;;;;;;2.10;59.61;99908.38;6186425;23;20023;-79
2021/12/18 07:12:41;;;;;;;7.93;3.22;;;;;;;2.18;60.13;99934.25;6164160;23;20108;-76
2021/12/18 07:15:09;;;;;;;5.45;2.67;;;;;;;2.20;60.37;99932.59;6162840;23;20016;-76
2021/12/18 07:17:35;;;;;;;5.57;2.75;;;;;;;2.16;60.16;99936.78;6147214;23;20016;-77
2021/12/18 07:20:02;;;;;;;7.85;3.75;;;;;;;2.14;60.28;99930.75;6198237;23;20013;-74
2021/12/18 07:22:28;;;;;;;6.60;2.80;;;;;;;2.26;60.34;99943.91;6198913;23;20017;-77
2021/12/18 07:24:54;;;;;;;3.83;2.30;;;;;;;2.19;60.10;99960.00;6194794;23;20051;-76
2021/12/18 07:27:26;;;;;;;4.38;2.00;;;;;;;2.11;59.62;99946.91;6163794;23;20398;-76
2021/12/18 07:29:52;;;;;;;4.15;1.70;;;;;;;1.80;59.42;99905.00;6133888;23;20017;-76
2021/12/18 07:32:19;;;;;;;2.30;1.25;;;;;;;1.95;59.39;99934.50;6183226;23;20035;-80
2021/12/18 07:34:45;;;;;;;2.65;1.40;;;;;;;1.85;59.85;99929.94;6185054;23;20036;-80
2021/12/18 07:37:11;;;;;;;2.67;1.50;;;;;;;1.82;59.33;99924.72;6167683;23;20043;-76
2021/12/18 07:39:37;;;;;;;5.88;1.73;;;;;;;1.72;59.31;99914.16;6183415;23;20025;-79
2021/12/18 07:42:05;;;;;;;4.32;1.95;;;;;;;1.85;59.42;99930.78;6185303;23;20016;-75
2021/12/18 07:44:34;;;;;;;;;;;;;;;1.88;59.54;99950.53;6151171;23;20013;-76
2021/12/18 07:47:10;;;;;;;4.50;1.90;;;;;;;1.92;59.35;99952.38;6162574;23;19946;-77
2021/12/18 07:49:36;;;;;;;2.80;1.40;;;;;;;1.57;58.93;99900.91;6110831;23;20143;-79
2021/12/18 07:52:04;;;;;;;4.15;1.77;;;;;;;1.65;59.56;99923.41;6137864;23;20024;-81
2021/12/18 07:54:31;;;;;;;3.60;1.08;;;;;;;1.77;59.02;99953.66;6160651;23;20083;-76
2021/12/18 07:57:00;;;;;;;2.80;1.55;;;;;;;1.50;58.88;99916.09;6134648;23;20016;-80
2021/12/18 07:59:36;;;;;;;3.35;1.52;;;;;;;1.79;59.32;99951.13;6109851;23;20020;-78
2021/12/18 08:02:05;;;;;;;4.80;1.80;;;;;;;1.83;59.02;99946.97;6135089;23;20028;-79
2021/12/18 08:04:33;;;;;;;3.65;1.80;;;;;;;1.85;59.42;99946.19;6184378;23;20079;-78
2021/12/18 08:07:01;;;;;;;3.28;1.73;;;;;;;1.75;59.02;99929.66;6184770;23;20261;-81
2021/12/18 08:09:27;;;;;;;3.08;1.60;;;;;;;1.95;58.36;99947.31;6160726;23;20040;-82
2021/12/18 08:11:53;;;;;;;3.13;1.60;;;;;;;1.85;58.62;99941.06;6159111;23;20025;-78
2021/12/18 08:14:19;;;;;;;3.28;1.63;;;;;;;1.92;58.51;99934.41;6158927;23;20090;-80
2021/12/18 08:16:47;;;;;;;2.35;1.40;;;;;;;1.89;58.03;99931.75;6159624;23;20021;-81
2021/12/18 08:19:12;;;;;;;2.30;1.40;;;;;;;1.87;57.89;99913.75;6158763;23;20021;-79
2021/12/18 08:21:38;;;;;;;2.28;1.50;;;;;;;1.89;58.55;99896.69;6185769;23;20097;-80
2021/12/18 08:24:04;;;;;;;4.18;1.63;;;;;;;1.77;57.23;99891.19;6159629;23;20020;-76
2021/12/18 08:26:30;;;;;;;3.38;1.65;;;;;;;1.93;57.66;99913.94;6186850;23;20170;-80
2021/12/18 08:28:56;;;;;;;4.03;1.63;;;;;;;1.88;57.63;99883.81;6191681;23;20017;-81
2021/12/18 08:31:22;;;;;;;2.90;1.50;;;;;;;1.94;57.17;99894.25;6137650;23;20362;-79
2021/12/18 08:33:48;;;;;;;3.20;1.30;;;;;;;1.91;57.21;99865.94;6188855;23;20032;-82
2021/12/18 08:36:15;;;;;;;2.80;1.40;;;;;;;2.15;57.18;99903.34;6138703;23;20431;-82
2021/12/18 08:38:41;;;;;;;2.20;1.30;;;;;;;2.07;56.49;99870.66;6118651;23;20039;-77
2021/12/18 08:41:06;;;;;;;3.65;1.70;;;;;;;2.37;57.26;99889.41;6170060;23;20100;-82
2021/12/18 08:43:40;;;;;;;3.63;2.00;;;;;;;2.23;57.02;99845.38;6145396;23;20111;-79
2021/12/18 08:46:06;;;;;;;2.95;1.63;;;;;;;2.37;57.00;99843.16;6137655;23;20017;-79
2021/12/18 08:48:33;;;;;;;2.95;1.80;;;;;;;2.71;56.78;99867.09;6202463;23;20023;-80
2021/12/18 08:50:59;;;;;;;4.15;1.92;;;;;;;2.63;56.14;99863.50;6168022;23;20024;-83
2021/12/18 08:53:25;;;;;;;5.07;1.85;;;;;;;2.62;55.89;99866.91;6190624;23;20021;-79
2021/12/18 08:55:50;;;;;;;6.45;2.20;;;;;;;2.70;55.87;99867.94;6191434;23;20077;-80
2021/12/18 08:58:17;;;;;;;4.25;2.28;;;;;;;2.68;55.94;99844.78;6188673;23;20021;-83
2021/12/18 09:00:43;;;;;;;3.88;2.08;;;;;;;2.57;56.02;99812.81;6185830;23;20451;-80
2021/12/18 09:03:09;;;;;;;3.13;1.77;;;;;;;2.58;55.47;99808.56;6162962;23;20020;-80
2021/12/18 09:05:34;;;;;;;3.40;1.90;;;;;;;2.72;56.21;99804.59;6160729;23;20027;-81
2021/12/18 09:08:00;;;;;;;3.60;2.35;;;;;;;2.93;55.79;99819.66;6160521;23;20017;-81
2021/12/18 09:10:27;;;;;;;3.78;2.20;;;;;;;2.80;55.60;99794.50;6186054;23;20016;-80
2021/12/18 09:12:53;;;;;;;3.38;2.08;;;;;;;3.01;55.73;99830.97;6186693;23;20016;-80
2021/12/18 09:15:20;;;;;;;3.92;2.15;;;;;;;3.08;55.25;99839.69;6186117;23;20062;-79
2021/12/18 09:17:45;;;;;;;6.18;2.65;;;;;;;3.04;55.25;99819.91;6162074;23;20405;-81
2021/12/18 09:20:12;;;;;;;3.88;2.15;;;;;;;3.10;55.30;99822.56;6194867;23;20013;-77
2021/12/18 09:22:38;;;;;;;4.45;2.72;;;;;;;3.08;55.39;99823.41;6208435;23;20431;-79
2021/12/18 09:25:07;;;;;;;4.72;2.60;;;;;;;2.99;54.99;99813.78;6159116;23;20021;-76
2021/12/18 09:27:33;;;;;;;5.30;2.70;;;;;;;3.04;55.03;99829.28;6196028;23;20023;-80
2021/12/18 09:29:59;;;;;;;5.55;2.85;;;;;;;2.97;54.92;99815.44;6162366;23;20044;-78
2021/12/18 09:32:25;;;;;;;5.10;3.00;;;;;;;2.94;54.99;99816.25;6164821;23;20021;-79
2021/12/18 09:34:52;;;;;;;4.30;2.20;;;;;;;2.91;55.21;99805.00;6160237;23;20025;-81
2021/12/18 09:37:18;;;;;;;3.65;2.15;;;;;;;3.00;54.78;99816.38;6134192;23;20023;-77
2021/12/18 09:39:52;;;;;;;2.42;1.40;;;;;;;2.86;54.46;99802.34;6188377;23;20017;-80
2021/12/18 09:42:22;;;;;;;4.80;1.85;;;;;;;2.79;55.13;99808.19;6186017;23;20017;-81
2021/12/18 09:44:50;;;;;;;5.43;2.25;;;;;;;2.74;55.12;99799.50;6187644;23;20052;-78
2021/12/18 09:47:22;;;;;;;4.68;2.50;;;;;;;2.78;55.10;99801.28;6161884;23;20362;-78
2021/12/18 09:50:09;;;;;;;4.70;2.40;;;;;;;2.83;54.74;99810.00;6142606;23;20017;-76
2021/12/18 09:52:41;;;;;;;5.43;2.30;;;;;;;2.65;54.98;99783.03;6162674;23;20020;-77
2021/12/18 09:55:08;;;;;;;5.10;2.13;;;;;;;2.69;54.95;99799.38;6189077;23;20021;-78
2021/12/18 09:57:35;;;;;;;4.78;2.20;;;;;;;2.53;54.62;99759.66;6172182;23;20028;-76
2021/12/18 10:00:26;;;;;;;3.72;2.20;;;;;;;2.18;54.99;99698.03;6175002;23;20021;-83
2021/12/18 10:02:54;;;;;;;5.05;2.60;;;;;;;2.70;54.72;99789.16;6188014;23;20154;-78
2021/12/18 10:05:32;;;;;;;5.25;2.50;;;;;;;2.51;54.90;99767.31;6136507;23;20051;-78
2021/12/18 10:08:11;;;;;;;4.55;2.13;;;;;;;2.58;55.21;99782.88;6184423;23;20076;-83
2021/12/18 10:11:11;;;;;;;3.00;2.08;;;;;;;2.61;55.61;99780.38;6140756;23;20021;-81
2021/12/18 10:13:57;;;;;;;3.17;1.80;;;;;;;2.66;55.38;99782.22;6112420;23;20016;-82
2021/12/18 10:16:28;;;;;;;5.82;2.03;;;;;;;2.29;55.23;99706.88;6187962;23;20099;-80
2021/12/18 10:18:55;;;;;;;6.00;2.40;;;;;;;2.78;55.21;99773.91;6139137;23;20028;-78
2021/12/18 10:21:24;;;;;;;4.75;1.90;;;;;;;2.79;55.42;99769.63;6175456;23;20082;-80
2021/12/18 10:23:52;;;;;;;4.05;1.80;;;;;;;2.79;55.41;99779.91;6175253;23;20016;-80
2021/12/18 10:26:37;;;;;;;3.33;1.83;;;;;;;2.76;54.89;99780.72;6203292;23;20291;-77
2021/12/18 10:29:07;;;;;;;4.68;2.15;;;;;;;2.70;55.22;99770.28;6168526;23;20013;-81
2021/12/18 10:31:46;;;;;;;2.83;1.88;;;;;;;2.46;54.50;99761.19;6191940;23;20017;-79
2021/12/18 10:34:28;;;;;;;4.25;2.25;;;;;;;2.49;56.03;99761.25;6188503;23;20025;-78
2021/12/18 10:37:12;;;;;;;6.60;2.28;;;;;;;2.59;55.90;99771.75;6163495;23;20109;-78
2021/12/18 10:39:50;;;;;;;3.93;2.30;;;;;;;2.50;56.02;99755.28;6191731;23;20017;-79
2021/12/18 10:42:30;;;;;;;3.15;1.85;;;;;;;2.52;55.76;99760.47;6165688;23;20439;-81
2021/12/18 10:45:24;;;;;;;3.33;1.98;;;;;;;2.51;56.15;99766.44;6139776;23;20024;-79
2021/12/18 10:47:53;;;;;;;3.65;1.83;;;;;;;2.56;56.00;99762.25;6163670;23;20017;-80
2021/12/18 10:50:23;;;;;;;2.83;1.58;;;;;;;2.57;56.01;99764.00;6190960;23;20087;-83
2021/12/18 10:53:04;;;;;;;2.58;1.40;;;;;;;2.48;56.16;99756.09;6190218;23;20017;-81
2021/12/18 10:55:39;;;;;;;4.03;1.80;;;;;;;2.37;55.76;99749.00;6167133;23;20020;-80
2021/12/18 10:58:11;;;;;;;2.72;1.80;;;;;;;2.04;55.97;99690.88;6165693;23;20115;-80
2021/12/18 11:00:58;;;;;;;2.38;1.67;;;;;;;2.42;56.69;99751.69;6164500;23;20037;-80
2021/12/18 11:03:31;;;;;;;2.85;1.85;;;;;;;2.41;55.98;99760.22;6183421;23;20020;-79
2021/12/18 11:06:26;;;;;;;2.33;1.48;;;;;;;2.35;56.03;99754.94;6210072;23;20028;-79
2021/12/18 11:09:16;;;;;;;4.72;1.77;;;;;;;2.36;56.15;99754.97;6188572;23;20005;-79
2021/12/18 11:15:07;;;;;;;2.45;1.90;;;;;;;2.40;56.04;99756.78;6169914;23;20455;-84
2021/12/18 11:17:33;;;;;;;3.40;1.85;;;;;;;2.41;56.39;99750.81;6190693;23;20016;-84
2021/12/18 11:19:59;;;;;;;2.67;1.65;;;;;;;2.43;56.04;99755.13;6187203;23;20063;-84
2021/12/18 11:22:30;;;;;;;2.28;1.40;;;;;;;2.01;55.56;99723.28;6138835;23;20016;-81
2021/12/18 11:25:11;;;;;;;4.90;1.70;;;;;;;1.73;56.08;99690.13;6162600;23;20013;-80
2021/12/18 11:27:41;;;;;;;2.47;1.77;;;;;;;2.14;56.43;99752.72;6138250;23;20021;-81
2021/12/18 11:30:12;;;;;;;3.40;1.60;;;;;;;1.58;56.50;99648.69;6189545;23;20017;-80
2021/12/18 11:32:46;;;;;;;4.78;1.83;;;;;;;2.16;56.85;99728.81;6132763;23;20032;-79
2021/12/18 11:35:17;;;;;;;2.75;1.60;;;;;;;2.21;56.47;99754.59;6132962;23;20021;-80
2021/12/18 11:37:59;;;;;;;2.17;1.70;;;;;;;2.23;56.30;99745.25;6145812;23;20021;-79
2021/12/18 11:40:33;;;;;;;2.40;1.25;;;;;;;1.92;56.83;99701.72;6149144;23;20274;-79
2021/12/18 11:43:25;;;;;;;2.63;1.40;;;;;;;1.97;56.40;99706.97;6137755;23;20017;-81
2021/12/18 11:45:51;;;;;;;2.67;1.40;;;;;;;1.92;56.23;99704.28;6161507;23;20036;-81
2021/12/18 11:48:31;;;;;;;2.05;1.23;;;;;;;2.18;56.55;99736.56;6138388;23;20018;-79
2021/12/18 11:51:12;;;;;;;2.95;1.80;;;;;;;1.81;55.88;99687.75;6158365;23;20013;-79
2021/12/18 11:53:40;;;;;;;2.88;1.33;;;;;;;2.22;56.31;99735.81;6131584;23;20017;-77
2021/12/18 11:56:06;;;;;;;2.85;1.52;;;;;;;2.14;56.49;99712.50;6156760;23;20541;-85
2021/12/18 11:59:00;;;;;;;2.65;1.52;;;;;;;1.76;56.08;99643.16;6158770;23;20028;-79
2021/12/18 12:01:26;;;;;;;2.53;1.65;;;;;;;2.27;56.42;99731.66;6158639;23;20074;-81
2021/12/18 12:03:53;;;;;;;5.32;1.42;;;;;;;2.28;55.97;99735.97;6162014;23;20021;-82
2021/12/18 12:06:24;;;;;;;2.70;1.30;;;;;;;2.27;56.21;99723.94;6137978;23;20072;-80
2021/12/18 12:09:37;;;;;;;1.80;1.20;;;;;;;2.17;55.85;99732.25;6161660;23;20075;-81
2021/12/18 12:12:06;;;;;;;2.10;1.35;;;;;;;1.71;55.91;99671.25;6139769;23;20032;-79
2021/12/18 12:14:40;;;;;;;3.50;1.58;;;;;;;1.12;56.09;99544.16;6164253;23;20045;-80
2021/12/18 12:17:14;;;;;;;2.10;1.45;;;;;;;1.45;55.87;99619.31;6173283;23;20024;-78
2021/12/18 12:19:59;;;;;;;2.55;1.40;;;;;;;2.02;56.26;99707.06;6172697;23;20127;-79
2021/12/18 12:23:18;;;;;;;1.45;1.13;;;;;;;1.39;55.12;99596.94;6168370;23;20021;-79
2021/12/18 12:25:56;;;;;;;5.40;1.20;;;;;;;1.84;55.32;99661.31;6169026;23;20459;-79
2021/12/18 12:28:27;;;;;;;1.73;1.10;;;;;;;1.94;55.67;99674.41;6169709;23;20037;-78
2021/12/18 12:30:56;;;;;;;1.75;1.35;;;;;;;2.01;55.51;99688.25;6150462;23;20081;-79
2021/12/18 12:33:33;;;;;;;3.35;1.27;;;;;;;1.41;55.30;99591.84;6146410;23;20033;-81
2021/12/18 12:36:12;;;;;;;2.65;1.23;;;;;;;2.04;55.37;99685.75;6199326;23;20026;-81
2021/12/18 12:38:57;;;;;;;1.42;1.15;;;;;;;1.21;54.99;99548.63;6175346;23;20017;-77